Time;durP1;ratioP1;P1;durP2;ratioP2;P2;SDS_P1;SDS_P2;PMS_P1;PMS_P2;Temp;Humidity;BMP_temperature;BMP_pressure;BME280_temperature;BME280_humidity;BME280_pressure;Samples;Min_cycle;Max_cycle;Signal;HPM_P1;HPM_P2
2023/12/09 00:00:50;;;;;;;15.85;9.30;;;;;;;;;;6247061;22;20070;-85
2023/12/09 00:03:35;;;;;;;14.57;9.10;;;;;;;;;;6245465;22;19996;-83
2023/12/09 00:06:21;;;;;;;15.88;9.23;;;;;;;;;;6246160;22;19996;-83
2023/12/09 00:09:07;;;;;;;16.10;10.18;;;;;;;;;;6245826;22;20074;-84
2023/12/09 00:11:52;;;;;;;15.90;8.93;;;;;;;;;;6244985;22;20008;-85
2023/12/09 00:14:37;;;;;;;16.90;9.52;;;;;;;;;;6245941;22;20011;-86
2023/12/09 00:17:22;;;;;;;16.23;10.35;;;;;;;;;;6242790;22;20357;-84
2023/12/09 00:20:08;;;;;;;13.05;9.23;;;;;;;;;;6246100;22;20027;-85
2023/12/09 00:22:53;;;;;;;16.48;9.10;;;;;;;;;;6245641;22;20005;-85
2023/12/09 00:25:39;;;;;;;12.73;8.38;;;;;;;;;;6245884;22;19999;-85
2023/12/09 00:28:26;;;;;;;15.20;9.15;;;;;;;;;;6245735;22;20031;-84
2023/12/09 00:31:11;;;;;;;15.75;9.60;;;;;;;;;;6245579;22;20543;-85
2023/12/09 00:33:56;;;;;;;14.82;9.48;;;;;;;;;;6245606;22;20000;-85
2023/12/09 00:36:41;;;;;;;16.73;9.18;;;;;;;;;;6245518;22;20003;-85
2023/12/09 00:39:26;;;;;;;13.35;8.90;;;;;;;;;;6245020;22;20039;-85
2023/12/09 00:42:12;;;;;;;14.73;9.48;;;;;;;;;;6245672;22;20009;-86
2023/12/09 00:44:57;;;;;;;13.57;8.60;;;;;;;;;;6245979;22;20460;-85
2023/12/09 00:47:42;;;;;;;15.93;9.52;;;;;;;;;;6246201;22;19996;-85
2023/12/09 00:50:27;;;;;;;15.63;8.55;;;;;;;;;;6245521;22;20356;-86
2023/12/09 00:53:12;;;;;;;13.93;8.23;;;;;;;;;;6245147;22;20110;-85
2023/12/09 00:55:58;;;;;;;12.90;8.20;;;;;;;;;;6244364;22;20003;-85
2023/12/09 00:58:43;;;;;;;12.15;8.05;;;;;;;;;;6246066;22;20000;-86
2023/12/09 01:01:28;;;;;;;12.25;7.30;;;;;;;;;;6245974;22;20379;-86
2023/12/09 01:04:13;;;;;;;10.90;7.05;;;;;;;;;;6245277;22;19995;-85
2023/12/09 01:06:59;;;;;;;15.15;8.88;;;;;;;;;;6245611;22;20050;-87
2023/12/09 01:09:44;;;;;;;14.80;7.75;;;;;;;;;;6245589;22;20304;-86
2023/12/09 01:12:30;;;;;;;12.88;7.97;;;;;;;;;;6245238;22;20087;-86
2023/12/09 01:15:15;;;;;;;14.35;7.90;;;;;;;;;;6245519;22;19995;-86
2023/12/09 01:18:00;;;;;;;10.60;7.07;;;;;;;;;;6245158;22;20086;-86
2023/12/09 01:20:46;;;;;;;18.08;8.00;;;;;;;;;;6245626;22;20002;-86
2023/12/09 01:23:31;;;;;;;12.98;8.25;;;;;;;;;;6244503;22;20409;-86
2023/12/09 01:26:16;;;;;;;14.25;7.60;;;;;;;;;;6245173;22;20019;-86
2023/12/09 01:29:03;;;;;;;14.65;8.85;;;;;;;;;;6245301;22;20063;-85
2023/12/09 01:31:48;;;;;;;14.48;7.50;;;;;;;;;;6245074;22;20018;-86
2023/12/09 01:34:34;;;;;;;15.52;9.00;;;;;;;;;;6244691;22;20116;-86
2023/12/09 01:37:19;;;;;;;12.80;7.55;;;;;;;;;;6245635;22;20002;-86
2023/12/09 01:40:05;;;;;;;14.52;6.95;;;;;;;;;;6244167;22;19999;-85
2023/12/09 01:42:50;;;;;;;15.63;8.90;;;;;;;;;;6244555;22;20440;-85
2023/12/09 01:45:35;;;;;;;12.68;8.35;;;;;;;;;;6244887;22;20035;-86
2023/12/09 01:48:22;;;;;;;13.27;7.78;;;;;;;;;;6246088;22;20003;-87
2023/12/09 01:51:07;;;;;;;14.20;8.45;;;;;;;;;;6244987;22;20059;-86
2023/12/09 01:53:53;;;;;;;14.27;7.75;;;;;;;;;;6245200;22;20003;-86
2023/12/09 01:56:38;;;;;;;11.35;7.32;;;;;;;;;;6244833;22;20062;-86
2023/12/09 01:59:23;;;;;;;14.68;8.50;;;;;;;;;;6245439;22;20039;-86
2023/12/09 02:02:09;;;;;;;13.05;7.95;;;;;;;;;;6245290;22;20007;-86
2023/12/09 02:04:55;;;;;;;16.02;8.48;;;;;;;;;;6244473;22;20647;-85
2023/12/09 02:07:40;;;;;;;13.13;8.50;;;;;;;;;;6245414;22;19996;-86
2023/12/09 02:10:26;;;;;;;12.20;7.70;;;;;;;;;;6245781;22;20011;-85
2023/12/09 02:13:20;;;;;;;12.45;8.07;;;;;;;;;;6247068;22;20063;-85
2023/12/09 02:16:15;;;;;;;12.77;7.88;;;;;;;;;;6247462;22;20109;-86
2023/12/09 02:19:00;;;;;;;16.10;8.52;;;;;;;;;;6246641;22;20071;-85
2023/12/09 02:22:06;;;;;;;11.38;7.25;;;;;;;;;;6247539;22;20035;-85
2023/12/09 02:24:51;;;;;;;12.52;8.05;;;;;;;;;;6245949;22;20071;-86
2023/12/09 02:27:40;;;;;;;14.35;7.43;;;;;;;;;;6247063;22;20003;-84
2023/12/09 02:30:28;;;;;;;13.70;7.28;;;;;;;;;;6247402;22;20027;-84
2023/12/09 02:33:14;;;;;;;15.45;8.30;;;;;;;;;;6247132;22;19999;-84
2023/12/09 02:36:01;;;;;;;13.30;8.80;;;;;;;;;;6247016;22;20057;-85
2023/12/09 02:38:47;;;;;;;13.52;8.75;;;;;;;;;;6246350;22;20007;-85
2023/12/09 02:41:32;;;;;;;13.50;7.60;;;;;;;;;;6246278;22;20097;-85
2023/12/09 02:44:18;;;;;;;11.98;8.05;;;;;;;;;;6268521;22;19999;-85
2023/12/09 02:47:03;;;;;;;16.08;8.75;;;;;;;;;;6246439;22;20054;-84
2023/12/09 02:49:49;;;;;;;14.88;7.55;;;;;;;;;;6246170;22;20000;-84
2023/12/09 02:52:34;;;;;;;13.93;7.43;;;;;;;;;;6245571;22;20012;-84
2023/12/09 02:55:19;;;;;;;12.30;7.40;;;;;;;;;;6246264;22;19996;-85
2023/12/09 02:58:05;;;;;;;11.20;7.25;;;;;;;;;;6245993;22;19996;-84
2023/12/09 03:00:50;;;;;;;13.70;7.97;;;;;;;;;;6246673;22;19992;-84
2023/12/09 03:03:35;;;;;;;14.00;7.10;;;;;;;;;;6245197;22;20383;-84
2023/12/09 03:06:20;;;;;;;14.15;7.50;;;;;;;;;;6250310;22;20050;-85
2023/12/09 03:09:06;;;;;;;13.20;7.45;;;;;;;;;;6250234;22;20488;-84
2023/12/09 03:11:51;;;;;;;11.40;6.68;;;;;;;;;;6250188;22;19997;-84
2023/12/09 03:14:37;;;;;;;12.77;7.25;;;;;;;;;;6249345;22;20006;-84
2023/12/09 03:17:22;;;;;;;11.77;6.95;;;;;;;;;;6249960;22;19996;-84
2023/12/09 03:20:10;;;;;;;14.25;7.32;;;;;;;;;;6249547;22;20045;-83
2023/12/09 03:22:55;;;;;;;15.55;8.55;;;;;;;;;;6271075;22;19995;-83
2023/12/09 03:25:41;;;;;;;12.85;7.60;;;;;;;;;;6249169;22;20003;-84
2023/12/09 03:28:26;;;;;;;12.30;6.63;;;;;;;;;;6250434;22;20007;-84
2023/12/09 03:31:12;;;;;;;14.13;6.65;;;;;;;;;;6249629;22;20012;-84
2023/12/09 03:33:57;;;;;;;12.60;6.75;;;;;;;;;;6249601;22;20038;-84
2023/12/09 03:36:42;;;;;;;12.63;6.18;;;;;;;;;;6249271;22;20026;-84
2023/12/09 03:39:28;;;;;;;16.10;7.07;;;;;;;;;;6249753;22;20006;-85
2023/12/09 03:42:13;;;;;;;13.73;6.85;;;;;;;;;;6249959;22;20235;-86
2023/12/09 03:44:58;;;;;;;11.70;6.45;;;;;;;;;;6249995;22;20000;-85
2023/12/09 03:47:45;;;;;;;10.50;5.55;;;;;;;;;;6249336;22;20038;-86
2023/12/09 03:50:30;;;;;;;11.80;6.00;;;;;;;;;;6249928;22;20015;-85
2023/12/09 03:53:15;;;;;;;11.40;5.90;;;;;;;;;;6249837;22;19999;-85
2023/12/09 03:56:01;;;;;;;8.95;5.32;;;;;;;;;;6249729;22;19996;-86
2023/12/09 03:58:46;;;;;;;13.43;5.93;;;;;;;;;;6250233;22;20030;-86
2023/12/09 04:01:31;;;;;;;11.88;5.55;;;;;;;;;;6249544;22;20031;-85
2023/12/09 04:04:17;;;;;;;14.00;5.85;;;;;;;;;;6245984;22;20116;-86
2023/12/09 04:07:02;;;;;;;7.78;4.47;;;;;;;;;;6246795;22;20017;-86
2023/12/09 04:09:47;;;;;;;10.35;4.93;;;;;;;;;;6245061;22;19996;-86
2023/12/09 04:12:33;;;;;;;10.25;4.70;;;;;;;;;;6245272;22;20075;-86
2023/12/09 04:15:18;;;;;;;11.07;6.63;;;;;;;;;;6243485;22;20057;-86
2023/12/09 04:18:03;;;;;;;7.90;4.38;;;;;;;;;;6245865;22;19992;-86
2023/12/09 04:20:48;;;;;;;9.43;4.15;;;;;;;;;;6245378;22;20007;-87
2023/12/09 04:23:34;;;;;;;8.90;3.92;;;;;;;;;;6245150;22;20106;-85
2023/12/09 04:26:19;;;;;;;10.13;4.50;;;;;;;;;;6244094;22;20067;-85
2023/12/09 04:29:06;;;;;;;10.27;4.35;;;;;;;;;;6245876;22;20004;-86
2023/12/09 04:31:51;;;;;;;9.52;4.50;;;;;;;;;;6243273;22;20099;-86
2023/12/09 04:34:38;;;;;;;10.57;4.65;;;;;;;;;;6245169;22;20003;-86
2023/12/09 04:37:23;;;;;;;8.70;4.50;;;;;;;;;;6245505;22;20087;-86
2023/12/09 04:40:10;;;;;;;7.38;4.20;;;;;;;;;;6245592;22;20004;-85
2023/12/09 04:42:55;;;;;;;12.23;5.40;;;;;;;;;;6244773;22;20427;-85
2023/12/09 04:45:40;;;;;;;9.60;4.65;;;;;;;;;;6245346;22;20070;-86
2023/12/09 04:48:26;;;;;;;9.05;4.82;;;;;;;;;;6246115;22;20023;-86
2023/12/09 04:51:11;;;;;;;8.63;4.72;;;;;;;;;;6246909;22;20085;-86
2023/12/09 04:53:56;;;;;;;8.13;4.43;;;;;;;;;;6246366;22;20061;-87
2023/12/09 04:56:42;;;;;;;9.50;5.05;;;;;;;;;;6267324;22;20000;-86
2023/12/09 04:59:27;;;;;;;9.15;5.43;;;;;;;;;;6245357;22;20004;-85
2023/12/09 05:02:12;;;;;;;10.43;4.68;;;;;;;;;;6244488;22;20078;-84
2023/12/09 05:04:58;;;;;;;13.95;4.95;;;;;;;;;;6245833;22;20052;-86
2023/12/09 05:07:43;;;;;;;8.82;5.38;;;;;;;;;;6245323;22;20025;-85
2023/12/09 05:10:28;;;;;;;10.23;5.43;;;;;;;;;;6245238;22;20170;-85
2023/12/09 05:13:13;;;;;;;9.57;4.43;;;;;;;;;;6249664;22;20082;-85
2023/12/09 05:15:59;;;;;;;11.07;5.90;;;;;;;;;;6250076;22;20004;-85
2023/12/09 05:18:44;;;;;;;11.90;5.70;;;;;;;;;;6244191;22;19996;-86
2023/12/09 05:21:29;;;;;;;17.67;6.78;;;;;;;;;;6244705;22;20031;-85
2023/12/09 05:24:14;;;;;;;13.15;5.55;;;;;;;;;;6245294;22;20019;-85
2023/12/09 05:27:00;;;;;;;9.70;4.82;;;;;;;;;;6244156;22;20027;-86
2023/12/09 05:29:45;;;;;;;11.63;5.53;;;;;;;;;;6245547;22;20379;-85
2023/12/09 05:32:30;;;;;;;11.82;5.38;;;;;;;;;;6244901;22;20035;-86
2023/12/09 05:35:16;;;;;;;10.07;4.05;;;;;;;;;;6245316;22;20003;-86
2023/12/09 05:38:01;;;;;;;7.65;4.05;;;;;;;;;;6245174;22;20039;-85
2023/12/09 05:40:46;;;;;;;7.70;5.10;;;;;;;;;;6244900;22;20003;-85
2023/12/09 05:43:31;;;;;;;9.38;4.20;;;;;;;;;;6244329;22;19999;-85
2023/12/09 05:46:20;;;;;;;11.43;5.50;;;;;;;;;;6244999;22;20011;-85
2023/12/09 05:49:06;;;;;;;7.88;4.38;;;;;;;;;;6266114;22;20029;-85
2023/12/09 05:51:51;;;;;;;7.28;3.95;;;;;;;;;;6244124;22;20099;-85
2023/12/09 05:54:37;;;;;;;11.30;4.82;;;;;;;;;;6244951;22;20078;-85
2023/12/09 05:57:22;;;;;;;8.95;5.03;;;;;;;;;;6245866;22;20510;-85
2023/12/09 06:00:09;;;;;;;9.30;4.22;;;;;;;;;;6244941;22;20078;-85
2023/12/09 06:02:54;;;;;;;9.40;4.28;;;;;;;;;;6244059;22;20003;-84
2023/12/09 06:05:40;;;;;;;9.23;4.28;;;;;;;;;;6245519;22;20031;-86
2023/12/09 06:08:28;;;;;;;10.30;4.90;;;;;;;;;;6245809;22;20006;-85
2023/12/09 06:11:14;;;;;;;11.48;4.57;;;;;;;;;;6244960;22;20027;-85
2023/12/09 06:13:59;;;;;;;8.77;4.80;;;;;;;;;;6244885;22;20014;-85
2023/12/09 06:16:44;;;;;;;8.82;4.70;;;;;;;;;;6244632;22;19995;-85
2023/12/09 06:19:29;;;;;;;7.80;4.05;;;;;;;;;;6244047;22;19999;-85
2023/12/09 06:22:14;;;;;;;11.60;5.07;;;;;;;;;;6244812;22;19992;-85
2023/12/09 06:25:00;;;;;;;8.55;4.13;;;;;;;;;;6245007;22;20048;-86
2023/12/09 06:27:45;;;;;;;10.82;4.70;;;;;;;;;;6244535;22;20000;-85
2023/12/09 06:30:31;;;;;;;13.30;5.18;;;;;;;;;;6223592;22;20000;-85
2023/12/09 06:33:17;;;;;;;12.15;5.88;;;;;;;;;;6244813;22;20077;-85
2023/12/09 06:36:02;;;;;;;12.05;5.57;;;;;;;;;;6245885;22;19996;-85
2023/12/09 06:38:48;;;;;;;12.00;6.03;;;;;;;;;;6246969;22;20312;-85
2023/12/09 06:41:33;;;;;;;13.32;5.60;;;;;;;;;;6247600;22;20085;-84
2023/12/09 06:44:18;;;;;;;10.43;5.43;;;;;;;;;;6247961;22;20003;-85
2023/12/09 06:47:03;;;;;;;11.48;5.55;;;;;;;;;;6270190;22;20045;-85
2023/12/09 06:49:48;;;;;;;8.27;3.92;;;;;;;;;;6271232;22;20055;-84
2023/12/09 06:52:34;;;;;;;7.80;4.30;;;;;;;;;;6272934;22;20023;-85
2023/12/09 06:55:19;;;;;;;11.30;5.78;;;;;;;;;;6275961;22;20035;-85
2023/12/09 06:58:04;;;;;;;8.32;4.25;;;;;;;;;;6276522;22;20000;-85
2023/12/09 07:00:50;;;;;;;9.30;4.25;;;;;;;;;;6263929;22;20407;-85
2023/12/09 07:03:37;;;;;;;8.25;4.10;;;;;;;;;;6250735;22;20019;-85
2023/12/09 07:06:23;;;;;;;7.18;3.95;;;;;;;;;;6250129;22;19999;-85
2023/12/09 07:09:09;;;;;;;12.23;5.00;;;;;;;;;;6249834;22;20336;-85
2023/12/09 07:11:54;;;;;;;8.80;4.60;;;;;;;;;;6249182;22;20680;-85
2023/12/09 07:14:40;;;;;;;7.07;3.38;;;;;;;;;;6247858;22;20030;-88
2023/12/09 07:17:25;;;;;;;12.55;5.70;;;;;;;;;;6246933;22;20000;-85
2023/12/09 07:20:10;;;;;;;9.35;3.83;;;;;;;;;;6247008;22;20071;-85
2023/12/09 07:22:56;;;;;;;6.60;3.53;;;;;;;;;;6246755;22;20003;-85
2023/12/09 07:25:41;;;;;;;9.43;2.90;;;;;;;;;;6246327;22;20052;-84
2023/12/09 07:28:26;;;;;;;6.20;2.53;;;;;;;;;;6245707;22;20004;-84
2023/12/09 07:31:12;;;;;;;6.53;3.25;;;;;;;;;;6246838;22;20015;-84
2023/12/09 07:33:57;;;;;;;7.75;3.75;;;;;;;;;;6246712;22;20015;-81
2023/12/09 07:36:42;;;;;;;8.02;4.13;;;;;;;;;;6247407;22;20006;-88
2023/12/09 07:39:28;;;;;;;6.18;3.00;;;;;;;;;;6247805;22;20086;-88
2023/12/09 07:42:13;;;;;;;5.07;2.85;;;;;;;;;;6247686;22;20075;-87
2023/12/09 07:44:59;;;;;;;10.75;3.35;;;;;;;;;;6247977;22;20007;-87
2023/12/09 07:47:44;;;;;;;10.63;4.47;;;;;;;;;;6247431;22;20030;-88
2023/12/09 07:50:32;;;;;;;14.95;7.82;;;;;;;;;;6247729;22;20022;-87
2023/12/09 07:53:17;;;;;;;10.57;6.03;;;;;;;;;;6247878;22;20012;-88
2023/12/09 07:56:02;;;;;;;10.98;5.65;;;;;;;;;;6248302;22;20336;-85
2023/12/09 07:58:48;;;;;;;8.55;4.35;;;;;;;;;;6247161;22;20018;-86
2023/12/09 08:01:33;;;;;;;14.50;4.10;;;;;;;;;;6247923;22;20440;-87
2023/12/09 08:04:19;;;;;;;8.73;3.85;;;;;;;;;;6248370;22;20439;-87
2023/12/09 08:07:07;;;;;;;8.63;3.50;;;;;;;;;;6247446;22;20054;-86
2023/12/09 08:09:52;;;;;;;6.60;3.13;;;;;;;;;;6248118;22;20101;-87
2023/12/09 08:12:38;;;;;;;5.93;2.97;;;;;;;;;;6248420;22;20003;-87
2023/12/09 08:15:23;;;;;;;4.20;2.65;;;;;;;;;;6249236;22;20328;-88
2023/12/09 08:18:08;;;;;;;7.28;3.15;;;;;;;;;;6249169;22;19992;-88
2023/12/09 08:20:55;;;;;;;7.20;3.20;;;;;;;;;;6248851;22;19999;-88
2023/12/09 08:23:40;;;;;;;7.68;3.17;;;;;;;;;;6248800;22;20488;-89
2023/12/09 08:26:25;;;;;;;5.18;2.75;;;;;;;;;;6249243;22;20419;-89
2023/12/09 08:29:14;;;;;;;8.07;3.15;;;;;;;;;;6248332;22;20000;-88
2023/12/09 08:31:59;;;;;;;7.22;3.10;;;;;;;;;;6246751;22;20424;-86
2023/12/09 08:34:44;;;;;;;6.32;3.70;;;;;;;;;;6247421;22;20071;-87
2023/12/09 08:37:29;;;;;;;6.93;3.38;;;;;;;;;;6246946;22;19995;-85
2023/12/09 08:40:15;;;;;;;6.78;3.20;;;;;;;;;;6247852;22;20306;-86
2023/12/09 08:43:00;;;;;;;9.77;3.30;;;;;;;;;;6248040;22;20010;-88
2023/12/09 08:45:45;;;;;;;6.15;3.35;;;;;;;;;;6247120;22;20375;-87
2023/12/09 08:48:30;;;;;;;7.53;3.45;;;;;;;;;;6247238;22;20004;-88
2023/12/09 08:51:16;;;;;;;10.45;3.50;;;;;;;;;;6246560;22;20051;-90
2023/12/09 08:54:01;;;;;;;9.30;3.40;;;;;;;;;;6247184;22;20065;-88
2023/12/09 08:56:46;;;;;;;6.50;3.00;;;;;;;;;;6246371;22;20003;-89
2023/12/09 08:59:32;;;;;;;8.75;3.55;;;;;;;;;;6246503;22;20003;-87
2023/12/09 09:02:17;;;;;;;9.30;4.45;;;;;;;;;;6247328;22;20091;-89
2023/12/09 09:05:03;;;;;;;11.02;4.18;;;;;;;;;;6246568;22;19999;-85
2023/12/09 09:07:48;;;;;;;8.63;4.05;;;;;;;;;;6247578;22;20034;-87
2023/12/09 09:10:33;;;;;;;9.10;4.82;;;;;;;;;;6248057;22;20444;-88
2023/12/09 09:13:19;;;;;;;12.30;3.65;;;;;;;;;;6248344;22;19995;-86
2023/12/09 09:16:04;;;;;;;6.95;2.30;;;;;;;;;;6246988;22;19999;-85
2023/12/09 09:18:49;;;;;;;5.80;2.53;;;;;;;;;;6246324;22;20000;-85
2023/12/09 09:21:35;;;;;;;4.85;2.60;;;;;;;;;;6246153;22;19996;-84
2023/12/09 09:24:20;;;;;;;6.22;2.50;;;;;;;;;;6246253;22;20026;-82
2023/12/09 09:27:05;;;;;;;9.25;3.55;;;;;;;;;;6246314;22;19996;-81
2023/12/09 09:29:50;;;;;;;9.15;2.65;;;;;;;;;;6246141;22;20015;-81
2023/12/09 09:32:36;;;;;;;9.95;3.50;;;;;;;;;;6246570;22;20049;-84
2023/12/09 09:35:57;;;;;;;4.88;2.22;;;;;;;;;;6246572;22;20060;-80
2023/12/09 09:38:43;;;;;;;6.88;2.28;;;;;;;;;;6233574;22;20287;-83
2023/12/09 09:41:31;;;;;;;5.40;2.65;;;;;;;;;;6247027;22;20488;-83
2023/12/09 09:44:18;;;;;;;4.63;2.30;;;;;;;;;;6247121;22;20006;-82
2023/12/09 09:47:04;;;;;;;4.88;2.47;;;;;;;;;;6246371;22;20414;-84
2023/12/09 09:49:50;;;;;;;5.20;2.70;;;;;;;;;;6248302;22;20654;-83
2023/12/09 09:52:37;;;;;;;6.43;2.10;;;;;;;;;;6248096;22;20525;-81
2023/12/09 09:55:25;;;;;;;7.80;2.17;;;;;;;;;;6225518;22;19991;-83
2023/12/09 09:58:16;;;;;;;5.47;1.98;;;;;;;;;;6247569;22;20087;-89
2023/12/09 10:01:05;;;;;;;4.43;2.10;;;;;;;;;;6247152;22;20463;-79
2023/12/09 10:03:51;;;;;;;2.97;1.83;;;;;;;;;;6245214;22;20022;-78
2023/12/09 10:06:36;;;;;;;5.13;2.30;;;;;;;;;;6247351;22;20095;-86
2023/12/09 10:09:22;;;;;;;6.25;2.10;;;;;;;;;;6246900;22;19992;-87
2023/12/09 10:12:08;;;;;;;6.65;2.58;;;;;;;;;;6246901;22;20086;-86
2023/12/09 10:14:54;;;;;;;4.82;1.83;;;;;;;;;;6246330;22;20010;-86
2023/12/09 10:18:17;;;;;;;4.05;2.17;;;;;;;;;;6247219;22;20065;-89
2023/12/09 10:21:05;;;;;;;7.43;2.53;;;;;;;;;;6244018;22;20023;-86
2023/12/09 10:23:56;;;;;;;6.82;2.17;;;;;;;;;;6246915;22;20007;-87
2023/12/09 10:27:19;;;;;;;6.15;2.35;;;;;;;;;;6247676;22;20034;-89
2023/12/09 10:30:05;;;;;;;4.32;2.22;;;;;;;;;;6270603;22;20022;-87
2023/12/09 10:32:52;;;;;;;4.15;2.15;;;;;;;;;;6248126;22;20058;-84
2023/12/09 10:35:38;;;;;;;5.32;2.25;;;;;;;;;;6248363;22;20049;-88
2023/12/09 10:38:28;;;;;;;6.30;2.67;;;;;;;;;;6249162;22;20030;-87
2023/12/09 10:41:16;;;;;;;3.78;2.25;;;;;;;;;;6270151;22;20294;-86
2023/12/09 10:44:02;;;;;;;5.35;2.30;;;;;;;;;;6248248;22;19998;-87
2023/12/09 10:46:48;;;;;;;6.43;2.40;;;;;;;;;;6249803;22;20003;-87
2023/12/09 10:49:34;;;;;;;5.15;2.15;;;;;;;;;;6247676;22;19995;-80
2023/12/09 10:52:19;;;;;;;7.90;2.92;;;;;;;;;;6259238;22;20015;-80
2023/12/09 10:55:05;;;;;;;4.05;2.15;;;;;;;;;;6260217;22;20023;-81
2023/12/09 10:57:51;;;;;;;4.20;2.30;;;;;;;;;;6238058;23;20336;-80
2023/12/09 11:00:37;;;;;;;5.13;2.88;;;;;;;;;;6238938;23;20145;-82
2023/12/09 11:03:23;;;;;;;5.82;2.33;;;;;;;;;;6239731;23;20512;-84
2023/12/09 11:06:09;;;;;;;5.00;2.53;;;;;;;;;;6241410;23;20385;-84
2023/12/09 11:08:54;;;;;;;6.25;2.33;;;;;;;;;;6238191;22;20376;-83
2023/12/09 11:11:43;;;;;;;3.25;2.17;;;;;;;;;;6238242;23;20008;-81
2023/12/09 11:14:28;;;;;;;6.00;2.50;;;;;;;;;;6237576;23;20090;-79
2023/12/09 11:17:32;;;;;;;4.05;2.15;;;;;;;;;;6238874;23;20079;-82
2023/12/09 11:20:18;;;;;;;4.28;2.10;;;;;;;;;;6238248;23;20043;-81
2023/12/09 11:23:04;;;;;;;4.88;2.28;;;;;;;;;;6237340;23;19996;-82
2023/12/09 11:25:49;;;;;;;4.03;2.35;;;;;;;;;;6238058;23;20035;-82
2023/12/09 11:28:35;;;;;;;4.95;2.25;;;;;;;;;;6260625;22;20364;-90
2023/12/09 11:31:30;;;;;;;4.72;2.67;;;;;;;;;;6222010;23;20015;-92
2023/12/09 11:34:25;;;;;;;6.78;2.33;;;;;;;;;;6239649;23;20003;-91
2023/12/09 11:37:22;;;;;;;6.20;2.05;;;;;;;;;;6220888;23;20002;-90
2023/12/09 11:43:37;;;;;;;5.15;2.47;;;;;;;;;;6218373;22;20043;-90
2023/12/09 11:46:26;;;;;;;4.00;2.13;;;;;;;;;;6239694;23;20046;-90
2023/12/09 11:53:05;;;;;;;5.30;2.43;;;;;;;;;;6163412;23;20197;-92
2023/12/09 11:59:09;;;;;;;5.78;3.05;;;;;;;;;;6262272;22;20783;-90
2023/12/09 12:01:58;;;;;;;5.15;2.85;;;;;;;;;;6258405;22;20022;-91
2023/12/09 12:05:00;;;;;;;5.80;3.03;;;;;;;;;;6254815;22;19992;-90
2023/12/09 12:07:46;;;;;;;5.13;2.47;;;;;;;;;;6245445;22;19995;-91
2023/12/09 12:13:09;;;;;;;5.47;2.85;;;;;;;;;;6240877;22;20404;-87
2023/12/09 12:19:40;;;;;;;6.13;2.78;;;;;;;;;;6173405;23;20000;-92
2023/12/09 12:22:26;;;;;;;3.83;2.38;;;;;;;;;;6194642;23;20014;-88
2023/12/09 12:25:26;;;;;;;6.00;2.53;;;;;;;;;;6226904;23;20001;-90
2023/12/09 12:28:14;;;;;;;6.00;3.10;;;;;;;;;;6219502;23;20103;-87
2023/12/09 12:30:59;;;;;;;3.50;2.17;;;;;;;;;;6219612;23;20000;-87
2023/12/09 12:33:45;;;;;;;3.55;2.03;;;;;;;;;;6215165;23;20004;-85
2023/12/09 12:36:30;;;;;;;5.80;3.05;;;;;;;;;;6216626;23;20091;-86
2023/12/09 12:39:15;;;;;;;3.35;2.13;;;;;;;;;;6194721;23;20440;-81
2023/12/09 12:42:01;;;;;;;4.65;2.53;;;;;;;;;;6215310;23;20008;-82
2023/12/09 12:44:54;;;;;;;6.07;3.88;;;;;;;;;;6217815;23;20614;-89
2023/12/09 12:47:40;;;;;;;3.88;2.80;;;;;;;;;;6217325;23;20007;-85
2023/12/09 12:50:25;;;;;;;6.72;2.90;;;;;;;;;;6211037;23;20024;-86
2023/12/09 12:53:13;;;;;;;5.05;3.70;;;;;;;;;;6216785;23;20008;-86
2023/12/09 12:55:59;;;;;;;6.53;2.97;;;;;;;;;;6217096;23;19996;-86
2023/12/09 12:58:45;;;;;;;4.30;2.80;;;;;;;;;;6216557;23;20057;-85
2023/12/09 13:01:30;;;;;;;3.80;2.53;;;;;;;;;;6216749;23;20010;-86
2023/12/09 13:04:15;;;;;;;5.40;3.03;;;;;;;;;;6216170;23;20463;-85
2023/12/09 13:07:01;;;;;;;5.68;2.85;;;;;;;;;;6215674;23;20000;-85
2023/12/09 13:09:46;;;;;;;5.03;2.47;;;;;;;;;;6215695;23;20034;-85
2023/12/09 13:12:31;;;;;;;6.03;2.83;;;;;;;;;;6215839;23;20016;-86
2023/12/09 13:15:17;;;;;;;5.47;2.75;;;;;;;;;;6216248;23;20080;-86
2023/12/09 13:18:03;;;;;;;6.80;2.10;;;;;;;;;;6216717;23;19996;-85
2023/12/09 13:20:50;;;;;;;5.15;2.08;;;;;;;;;;6215738;23;20000;-85
2023/12/09 13:23:35;;;;;;;3.90;2.20;;;;;;;;;;6216727;23;20694;-85
2023/12/09 13:26:21;;;;;;;3.47;1.90;;;;;;;;;;6216036;23;20046;-86
2023/12/09 13:29:06;;;;;;;3.58;1.95;;;;;;;;;;6215981;23;20585;-87
2023/12/09 13:31:52;;;;;;;6.15;2.80;;;;;;;;;;6215779;23;20008;-85
2023/12/09 13:34:38;;;;;;;4.15;2.60;;;;;;;;;;6215077;23;20130;-84
2023/12/09 13:37:23;;;;;;;3.20;2.50;;;;;;;;;;6216351;23;19996;-84
2023/12/09 13:40:09;;;;;;;4.90;2.53;;;;;;;;;;6215839;23;20007;-85
2023/12/09 13:42:55;;;;;;;4.55;2.22;;;;;;;;;;6216134;23;20007;-84
2023/12/09 13:45:40;;;;;;;4.00;2.13;;;;;;;;;;6215979;23;20004;-86
2023/12/09 13:48:25;;;;;;;3.55;2.60;;;;;;;;;;6218587;23;20050;-86
2023/12/09 13:51:10;;;;;;;3.67;1.98;;;;;;;;;;6197276;23;20043;-85
2023/12/09 13:53:57;;;;;;;4.43;2.63;;;;;;;;;;6218972;23;20078;-86
2023/12/09 13:56:43;;;;;;;5.47;2.50;;;;;;;;;;6216894;23;20035;-86
2023/12/09 13:59:32;;;;;;;3.58;2.00;;;;;;;;;;6217988;22;20507;-86
2023/12/09 14:02:27;;;;;;;4.10;2.47;;;;;;;;;;6215705;23;20079;-86
2023/12/09 14:05:13;;;;;;;5.28;2.47;;;;;;;;;;6217217;23;20091;-85
2023/12/09 14:07:59;;;;;;;6.13;2.90;;;;;;;;;;6217135;23;20007;-85
2023/12/09 14:10:44;;;;;;;5.85;2.70;;;;;;;;;;6217546;23;20452;-85
2023/12/09 14:13:29;;;;;;;5.07;2.70;;;;;;;;;;6196357;23;20016;-85
2023/12/09 14:16:14;;;;;;;4.75;2.20;;;;;;;;;;6217858;23;20000;-86
2023/12/09 14:18:59;;;;;;;3.33;2.55;;;;;;;;;;6217417;23;20000;-85
2023/12/09 14:21:45;;;;;;;3.63;2.28;;;;;;;;;;6217572;23;20004;-85
2023/12/09 14:24:30;;;;;;;7.60;1.90;;;;;;;;;;6217132;23;20022;-85
2023/12/09 14:27:15;;;;;;;5.53;2.60;;;;;;;;;;6218022;23;20075;-85
2023/12/09 14:30:01;;;;;;;4.35;2.40;;;;;;;;;;6217536;23;20028;-85
2023/12/09 14:32:46;;;;;;;4.68;2.30;;;;;;;;;;6217762;23;20000;-84
2023/12/09 14:35:31;;;;;;;7.45;2.08;;;;;;;;;;6216421;23;20000;-85
2023/12/09 14:38:17;;;;;;;3.75;1.90;;;;;;;;;;6217608;23;19996;-85
2023/12/09 14:41:02;;;;;;;4.25;2.50;;;;;;;;;;6217002;23;19996;-84
2023/12/09 14:43:47;;;;;;;5.07;2.90;;;;;;;;;;6217203;23;20583;-84
2023/12/09 14:46:38;;;;;;;3.85;2.80;;;;;;;;;;6198438;23;20011;-86
2023/12/09 14:49:23;;;;;;;4.03;2.20;;;;;;;;;;6218482;23;20004;-85
2023/12/09 14:52:12;;;;;;;4.35;2.55;;;;;;;;;;6219811;23;20031;-81
2023/12/09 14:55:03;;;;;;;5.63;2.50;;;;;;;;;;6241277;23;19985;-85
2023/12/09 14:57:48;;;;;;;5.75;2.75;;;;;;;;;;6201222;23;20073;-85
2023/12/09 15:00:33;;;;;;;5.47;2.60;;;;;;;;;;6181796;23;20072;-86
2023/12/09 15:03:18;;;;;;;5.47;2.33;;;;;;;;;;6196767;23;19989;-86
2023/12/09 15:06:04;;;;;;;6.90;3.05;;;;;;;;;;6192570;23;20096;-87
2023/12/09 15:08:50;;;;;;;5.65;3.10;;;;;;;;;;6195732;23;20011;-85
2023/12/09 15:11:35;;;;;;;7.20;3.30;;;;;;;;;;6181219;23;19997;-86
2023/12/09 15:14:21;;;;;;;3.60;2.50;;;;;;;;;;6235731;23;20044;-85
2023/12/09 15:17:06;;;;;;;4.75;2.35;;;;;;;;;;6222391;23;20468;-86
2023/12/09 15:19:54;;;;;;;4.70;2.42;;;;;;;;;;6218089;23;20004;-86
2023/12/09 15:22:39;;;;;;;7.88;3.05;;;;;;;;;;6218025;23;20344;-86
2023/12/09 15:25:24;;;;;;;4.70;2.97;;;;;;;;;;6218082;23;20000;-86
2023/12/09 15:28:10;;;;;;;4.55;2.95;;;;;;;;;;6217985;23;19992;-85
2023/12/09 15:30:55;;;;;;;6.60;3.60;;;;;;;;;;6217226;23;19997;-86
2023/12/09 15:33:41;;;;;;;4.75;2.83;;;;;;;;;;6217431;23;20000;-85
2023/12/09 15:36:26;;;;;;;5.88;2.90;;;;;;;;;;6215803;23;20101;-86
2023/12/09 15:39:12;;;;;;;5.18;2.40;;;;;;;;;;6216960;23;20049;-85
2023/12/09 15:41:57;;;;;;;4.85;3.17;;;;;;;;;;6217514;23;20062;-85
2023/12/09 15:44:42;;;;;;;4.00;2.60;;;;;;;;;;6216840;23;20257;-85
2023/12/09 15:47:27;;;;;;;6.68;2.72;;;;;;;;;;6217399;23;20003;-85
2023/12/09 15:50:13;;;;;;;4.45;2.45;;;;;;;;;;6217005;23;20057;-85
2023/12/09 15:52:59;;;;;;;3.95;2.53;;;;;;;;;;6216770;23;20050;-85
2023/12/09 15:55:45;;;;;;;3.45;2.13;;;;;;;;;;6216441;23;19992;-85
2023/12/09 15:58:30;;;;;;;8.82;2.85;;;;;;;;;;6217065;23;20007;-84
2023/12/09 16:01:15;;;;;;;3.78;2.03;;;;;;;;;;6219459;23;20008;-85
2023/12/09 16:04:01;;;;;;;6.47;3.10;;;;;;;;;;6219200;23;20046;-85
2023/12/09 16:06:47;;;;;;;5.22;2.97;;;;;;;;;;6217330;23;20031;-86
2023/12/09 16:09:32;;;;;;;5.80;2.80;;;;;;;;;;6215854;22;20011;-85
2023/12/09 16:12:19;;;;;;;4.10;2.30;;;;;;;;;;6216878;23;20051;-85
2023/12/09 16:15:05;;;;;;;5.43;2.63;;;;;;;;;;6216813;23;20063;-84
2023/12/09 16:17:50;;;;;;;4.47;2.03;;;;;;;;;;6217076;23;20077;-85
2023/12/09 16:20:35;;;;;;;3.92;2.80;;;;;;;;;;6217024;23;20416;-85
2023/12/09 16:23:21;;;;;;;5.88;2.67;;;;;;;;;;6217650;23;20640;-85
2023/12/09 16:26:06;;;;;;;6.97;3.13;;;;;;;;;;6216711;23;20377;-86
2023/12/09 16:28:51;;;;;;;4.75;2.90;;;;;;;;;;6217016;23;20031;-84
2023/12/09 16:31:38;;;;;;;5.40;2.90;;;;;;;;;;6216822;23;20058;-85
2023/12/09 16:34:23;;;;;;;4.78;3.03;;;;;;;;;;6216222;23;20015;-86
2023/12/09 16:37:09;;;;;;;5.65;2.60;;;;;;;;;;6194455;23;19996;-84
2023/12/09 16:39:54;;;;;;;7.00;3.00;;;;;;;;;;6216611;23;20075;-84
2023/12/09 16:42:40;;;;;;;4.57;2.75;;;;;;;;;;6217047;23;20050;-84
2023/12/09 16:45:25;;;;;;;6.55;3.15;;;;;;;;;;6217040;23;20053;-85
2023/12/09 16:48:11;;;;;;;9.10;4.30;;;;;;;;;;6216098;23;20004;-85